Time;durP1;ratioP1;P1;durP2;ratioP2;P2;SDS_P1;SDS_P2;PMS_P1;PMS_P2;Temp;Humidity;BMP_temperature;BMP_pressure;BME280_temperature;BME280_humidity;BME280_pressure;Samples;Min_cycle;Max_cycle;Signal;HPM_P1;HPM_P2
2022/01/03 00:01:54;;;;;;;55.45;9.77;;;11.70;86.60;;;;;;5096796;28;20026;-49
2022/01/03 00:04:20;;;;;;;58.42;10.77;;;11.70;86.70;;;;;;5096961;28;20099;-51
2022/01/03 00:06:46;;;;;;;54.80;9.60;;;11.70;86.80;;;;;;5095605;28;20055;-46
2022/01/03 00:09:12;;;;;;;73.80;11.02;;;11.70;86.60;;;;;;5096936;28;20462;-47
2022/01/03 00:11:40;;;;;;;53.25;9.27;;;11.70;86.60;;;;;;5096435;28;20028;-46
2022/01/03 00:14:06;;;;;;;64.75;12.48;;;11.70;86.50;;;;;;5096641;28;20098;-47
2022/01/03 00:16:31;;;;;;;58.08;10.13;;;11.70;86.50;;;;;;5096746;28;20032;-49
2022/01/03 00:18:57;;;;;;;67.43;9.85;;;11.60;86.60;;;;;;5095325;28;20067;-46
2022/01/03 00:21:39;;;;;;;49.17;11.57;;;11.60;86.70;;;;;;5052568;28;1267018;-49
2022/01/03 00:24:10;;;;;;;55.97;10.10;;;11.60;86.60;;;;;;5097537;28;20039;-47
2022/01/03 00:26:37;;;;;;;52.03;10.63;;;11.70;86.60;;;;;;5097295;28;20081;-51
2022/01/03 00:29:16;;;;;;;51.60;10.23;;;11.70;86.90;;;;;;5097305;28;20356;-48
2022/01/03 00:31:42;;;;;;;61.47;9.93;;;11.70;87.20;;;;;;5097023;28;20389;-46
2022/01/03 00:34:11;;;;;;;47.10;9.77;;;11.70;87.30;;;;;;5097128;28;20016;-48
2022/01/03 00:36:38;;;;;;;57.45;9.60;;;11.70;87.40;;;;;;5097338;28;20099;-47
2022/01/03 00:39:07;;;;;;;76.28;10.20;;;11.70;87.20;;;;;;5097282;28;20017;-50
2022/01/03 00:41:38;;;;;;;59.03;9.57;;;11.70;87.40;;;;;;5097173;28;20028;-48
2022/01/03 00:44:05;;;;;;;58.08;11.13;;;11.70;87.50;;;;;;5097526;28;20017;-47
2022/01/03 00:46:32;;;;;;;60.60;10.82;;;11.80;87.10;;;;;;5097477;28;20375;-47
2022/01/03 00:49:01;;;;;;;61.45;11.43;;;11.70;87.10;;;;;;5096958;28;20020;-47
2022/01/03 00:51:27;;;;;;;61.42;9.75;;;11.80;87.40;;;;;;5096930;28;20031;-46
2022/01/03 00:53:53;;;;;;;56.80;8.93;;;11.80;87.20;;;;;;5097018;28;20020;-47
2022/01/03 00:56:27;;;;;;;60.00;9.95;;;11.80;87.30;;;;;;5097204;28;20103;-51
2022/01/03 00:58:59;;;;;;;62.97;11.63;;;11.80;87.10;;;;;;5095937;28;20077;-47
2022/01/03 01:01:25;;;;;;;63.70;10.40;;;11.80;87.40;;;;;;5097033;28;20035;-51
2022/01/03 01:03:54;;;;;;;59.95;10.73;;;11.80;87.40;;;;;;5097011;28;20039;-47
2022/01/03 01:06:22;;;;;;;66.38;10.82;;;11.90;87.20;;;;;;5097180;28;20119;-51
2022/01/03 01:08:56;;;;;;;52.20;10.07;;;11.90;87.30;;;;;;5096912;28;20558;-46
2022/01/03 01:11:27;;;;;;;60.45;9.50;;;11.90;87.20;;;;;;5097045;28;20032;-47
2022/01/03 01:13:53;;;;;;;68.85;10.50;;;11.90;87.20;;;;;;5096695;28;20058;-47
2022/01/03 01:16:20;;;;;;;55.95;10.15;;;11.90;87.20;;;;;;5096594;28;20036;-47
2022/01/03 01:18:45;;;;;;;48.90;9.63;;;11.90;87.00;;;;;;5099212;28;20020;-49
2022/01/03 01:21:11;;;;;;;53.20;8.90;;;11.80;87.00;;;;;;5100356;28;20123;-48
2022/01/03 01:23:41;;;;;;;53.92;9.80;;;11.80;86.90;;;;;;5099109;28;20035;-47
2022/01/03 01:28:51;;;;;;;67.07;11.93;;;11.80;87.10;;;;;;5100717;28;20066;-48
2022/01/03 01:31:20;;;;;;;61.95;9.55;;;11.80;87.30;;;;;;5100708;28;20028;-47
2022/01/03 01:33:52;;;;;;;70.25;10.68;;;11.80;87.30;;;;;;5100498;28;20038;-46
2022/01/03 01:36:18;;;;;;;46.40;8.50;;;11.80;87.30;;;;;;5100148;28;20024;-48
2022/01/03 01:38:49;;;;;;;49.90;7.93;;;11.80;87.50;;;;;;5100549;28;20012;-48
2022/01/03 01:41:18;;;;;;;46.08;8.65;;;11.80;87.30;;;;;;5100337;28;20027;-46
2022/01/03 01:43:48;;;;;;;61.75;10.13;;;11.80;87.20;;;;;;5100254;28;20028;-49
2022/01/03 01:46:17;;;;;;;62.03;10.98;;;11.80;87.30;;;;;;5100540;28;20031;-50
2022/01/03 01:48:46;;;;;;;59.58;11.82;;;11.80;87.20;;;;;;5100218;28;20053;-46
2022/01/03 01:51:13;;;;;;;56.20;10.77;;;11.90;87.50;;;;;;5100149;28;20035;-48
2022/01/03 01:53:42;;;;;;;62.97;9.88;;;11.80;87.80;;;;;;5100355;28;20028;-47
2022/01/03 01:56:27;;;;;;;49.45;9.10;;;11.80;87.70;;;;;;5099783;28;20024;-46
2022/01/03 01:59:14;;;;;;;54.33;9.15;;;11.80;87.70;;;;;;5099813;28;20020;-49
2022/01/03 02:01:50;;;;;;;62.65;9.85;;;11.90;87.40;;;;;;5099898;28;20024;-48
2022/01/03 02:04:32;;;;;;;47.03;8.93;;;11.90;87.40;;;;;;5099930;28;20027;-48
2022/01/03 02:07:31;;;;;;;55.92;9.20;;;11.90;87.60;;;;;;5099624;28;20020;-49
2022/01/03 02:10:11;;;;;;;56.05;8.48;;;11.90;87.50;;;;;;5099429;28;20050;-49
2022/01/03 02:12:49;;;;;;;54.90;10.27;;;11.90;87.50;;;;;;5098118;28;20032;-48
2022/01/03 02:15:17;;;;;;;61.80;10.65;;;11.90;87.30;;;;;;5099513;28;20035;-47
2022/01/03 02:17:45;;;;;;;61.25;9.52;;;11.90;87.40;;;;;;5099420;28;20031;-47
2022/01/03 02:20:14;;;;;;;59.58;8.93;;;11.90;87.50;;;;;;5099299;28;20086;-48
2022/01/03 02:22:41;;;;;;;61.28;9.57;;;11.90;87.50;;;;;;5099282;28;20173;-46
2022/01/03 02:25:09;;;;;;;61.58;10.57;;;11.90;87.40;;;;;;5099611;28;20027;-49
2022/01/03 02:27:36;;;;;;;48.35;8.25;;;11.90;87.20;;;;;;5099660;28;20020;-47
2022/01/03 02:30:05;;;;;;;70.30;9.93;;;11.90;87.20;;;;;;5098245;28;20031;-48
2022/01/03 02:32:31;;;;;;;47.55;8.35;;;11.90;87.10;;;;;;5099077;28;20024;-45
2022/01/03 02:34:57;;;;;;;58.75;8.65;;;11.90;87.10;;;;;;5097626;28;20547;-46
2022/01/03 02:37:23;;;;;;;53.50;9.77;;;11.90;87.10;;;;;;5098883;28;20083;-47
2022/01/03 02:39:51;;;;;;;44.22;8.30;;;11.80;87.10;;;;;;5099184;28;20039;-49
2022/01/03 02:42:20;;;;;;;55.20;10.10;;;11.90;87.10;;;;;;5098912;28;20016;-47
2022/01/03 02:44:46;;;;;;;45.97;7.72;;;11.90;87.10;;;;;;5099121;28;20036;-47
2022/01/03 02:47:20;;;;;;;64.53;9.70;;;11.80;87.10;;;;;;5098810;28;20020;-46
2022/01/03 02:49:45;;;;;;;58.50;9.57;;;11.80;87.10;;;;;;5098794;28;20024;-50
2022/01/03 02:52:11;;;;;;;50.30;8.63;;;11.80;87.60;;;;;;5098946;28;20031;-47
2022/01/03 02:54:37;;;;;;;43.50;7.20;;;11.80;87.30;;;;;;5099048;28;20538;-48
2022/01/03 02:57:03;;;;;;;54.47;9.98;;;11.80;87.30;;;;;;5098810;28;20024;-47
2022/01/03 02:59:29;;;;;;;53.38;10.55;;;11.80;87.10;;;;;;5098614;28;20024;-48
2022/01/03 03:01:55;;;;;;;54.30;10.25;;;11.90;87.00;;;;;;5098444;28;20020;-46
2022/01/03 03:04:21;;;;;;;51.65;8.82;;;11.80;87.10;;;;;;5098642;28;20059;-46
2022/01/03 03:06:46;;;;;;;66.25;10.18;;;11.80;87.00;;;;;;5098668;28;20024;-47
2022/01/03 03:09:13;;;;;;;46.97;9.10;;;11.80;87.10;;;;;;5098879;28;20028;-47
2022/01/03 03:11:38;;;;;;;62.58;9.65;;;11.70;87.00;;;;;;5098643;28;20020;-46
2022/01/03 03:14:04;;;;;;;55.70;9.95;;;11.70;87.00;;;;;;5098867;28;20031;-48
2022/01/03 03:16:30;;;;;;;58.03;10.95;;;11.80;87.00;;;;;;5098477;28;20020;-46
2022/01/03 03:18:56;;;;;;;58.53;9.52;;;11.70;87.00;;;;;;5098863;28;20161;-46
2022/01/03 03:21:22;;;;;;;55.88;9.27;;;11.70;87.10;;;;;;5098719;28;20067;-46
2022/01/03 03:23:47;;;;;;;54.05;10.32;;;11.70;87.20;;;;;;5098653;28;20024;-45
2022/01/03 03:26:13;;;;;;;58.60;10.65;;;11.80;87.10;;;;;;5098603;28;20107;-46
2022/01/03 03:28:39;;;;;;;54.75;10.05;;;11.80;87.30;;;;;;5098427;28;20036;-45
2022/01/03 03:31:05;;;;;;;58.75;9.30;;;11.80;87.40;;;;;;5098527;28;20510;-49
2022/01/03 03:33:32;;;;;;;70.07;10.68;;;11.80;87.40;;;;;;5098359;28;20038;-46
2022/01/03 03:36:00;;;;;;;54.13;9.65;;;11.80;87.60;;;;;;5098154;28;20012;-46
2022/01/03 03:38:27;;;;;;;56.67;9.65;;;11.80;87.50;;;;;;5098443;28;20016;-46
2022/01/03 03:40:57;;;;;;;45.38;9.20;;;11.80;87.30;;;;;;5098128;28;20012;-46
2022/01/03 03:43:24;;;;;;;56.35;8.73;;;11.80;87.40;;;;;;5098186;28;20028;-46
2022/01/03 03:45:50;;;;;;;55.05;8.57;;;11.80;87.50;;;;;;5098091;28;20020;-48
2022/01/03 03:48:16;;;;;;;65.10;9.30;;;11.80;87.40;;;;;;5098063;28;20024;-46
2022/01/03 03:50:43;;;;;;;63.97;9.02;;;11.80;87.40;;;;;;5098209;28;20042;-47
2022/01/03 03:53:09;;;;;;;59.58;10.65;;;11.80;87.60;;;;;;5098354;28;20024;-46
2022/01/03 03:55:35;;;;;;;58.20;8.60;;;11.80;87.50;;;;;;5097917;28;20016;-50
2022/01/03 03:58:02;;;;;;;60.28;10.07;;;11.80;88.20;;;;;;5098372;28;20045;-46
2022/01/03 04:00:28;;;;;;;66.47;9.95;;;11.80;87.70;;;;;;5097907;28;20023;-47
2022/01/03 04:02:54;;;;;;;67.82;10.90;;;11.80;87.80;;;;;;5098095;28;20058;-46
2022/01/03 04:05:19;;;;;;;63.47;10.80;;;11.80;88.00;;;;;;5097903;28;20016;-46
2022/01/03 04:07:46;;;;;;;58.42;8.88;;;11.80;87.80;;;;;;5097846;28;20039;-46
2022/01/03 04:10:15;;;;;;;67.93;9.75;;;11.80;87.80;;;;;;5097642;28;20028;-46
2022/01/03 04:12:41;;;;;;;57.60;9.48;;;11.90;88.00;;;;;;5098011;28;20028;-47
2022/01/03 04:15:07;;;;;;;64.70;9.10;;;11.80;88.00;;;;;;5097984;28;20414;-49
2022/01/03 04:17:34;;;;;;;52.08;7.95;;;11.80;88.10;;;;;;5097834;28;20040;-46
2022/01/03 04:20:00;;;;;;;53.97;9.30;;;11.90;87.80;;;;;;5097556;28;20048;-46
2022/01/03 04:22:25;;;;;;;54.17;9.38;;;11.90;88.00;;;;;;5097730;28;20536;-47
2022/01/03 04:24:51;;;;;;;57.88;10.00;;;11.90;87.80;;;;;;5098012;28;20047;-47
2022/01/03 04:27:17;;;;;;;56.83;9.35;;;11.90;88.40;;;;;;5096363;28;20028;-46
2022/01/03 04:29:43;;;;;;;59.42;9.07;;;11.90;87.70;;;;;;5097650;28;20054;-46
2022/01/03 04:32:09;;;;;;;67.72;10.88;;;11.90;87.80;;;;;;5097693;28;20514;-46
2022/01/03 04:34:34;;;;;;;55.25;10.95;;;11.90;87.80;;;;;;5097708;28;20035;-46
2022/01/03 04:37:00;;;;;;;54.03;10.50;;;11.80;87.80;;;;;;5097968;28;20028;-46
2022/01/03 04:39:26;;;;;;;60.50;9.15;;;11.90;88.20;;;;;;5097560;28;20016;-45
2022/01/03 04:41:52;;;;;;;55.33;8.93;;;11.90;87.90;;;;;;5097594;28;20016;-46
2022/01/03 04:44:18;;;;;;;63.35;8.95;;;11.90;87.90;;;;;;5097515;28;20475;-57
2022/01/03 04:46:43;;;;;;;57.20;8.50;;;11.80;87.80;;;;;;5097540;28;20028;-57
2022/01/03 04:49:09;;;;;;;52.17;9.32;;;11.80;87.80;;;;;;5097454;28;20025;-57
2022/01/03 04:51:36;;;;;;;59.80;9.52;;;11.80;88.00;;;;;;5097794;28;20028;-57
2022/01/03 04:54:03;;;;;;;58.00;9.90;;;11.90;88.00;;;;;;5100539;28;20031;-57
2022/01/03 04:56:29;;;;;;;51.88;9.43;;;11.90;88.00;;;;;;5101398;28;20395;-53
2022/01/03 04:58:56;;;;;;;62.67;9.52;;;11.90;88.10;;;;;;5101233;28;20122;-57
2022/01/03 05:01:23;;;;;;;57.42;10.18;;;11.90;88.10;;;;;;5101256;28;20077;-57
2022/01/03 05:03:49;;;;;;;63.47;9.70;;;11.90;88.00;;;;;;5101151;28;20430;-58
2022/01/03 05:06:17;;;;;;;58.15;10.32;;;11.90;87.90;;;;;;5101103;28;20584;-57
2022/01/03 05:08:43;;;;;;;63.22;10.15;;;11.90;88.10;;;;;;5101120;28;20025;-56
2022/01/03 05:11:09;;;;;;;49.38;9.15;;;11.90;88.10;;;;;;5100938;28;20028;-57
2022/01/03 05:13:35;;;;;;;68.65;10.30;;;11.90;88.20;;;;;;5101005;28;20023;-54
2022/01/03 05:16:01;;;;;;;49.30;9.75;;;11.90;88.10;;;;;;5100802;28;20554;-57
2022/01/03 05:18:27;;;;;;;57.70;8.82;;;11.90;88.00;;;;;;5101040;28;20039;-57
2022/01/03 05:20:53;;;;;;;49.58;8.55;;;11.90;87.70;;;;;;5100650;28;20101;-55
2022/01/03 05:23:19;;;;;;;67.95;10.95;;;11.90;88.00;;;;;;5100736;28;20098;-57
2022/01/03 05:25:45;;;;;;;59.10;9.40;;;11.90;88.10;;;;;;5100512;28;20117;-57
2022/01/03 05:28:11;;;;;;;52.95;8.50;;;11.90;88.10;;;;;;5100859;28;20028;-56
2022/01/03 05:30:38;;;;;;;40.30;8.70;;;11.90;88.00;;;;;;5100885;28;20020;-57
2022/01/03 05:33:04;;;;;;;66.70;8.55;;;11.80;88.00;;;;;;5100786;28;20034;-56
2022/01/03 05:35:30;;;;;;;49.75;8.80;;;11.80;88.30;;;;;;5100821;28;20103;-56
2022/01/03 05:37:56;;;;;;;45.10;7.90;;;11.80;88.30;;;;;;5100366;28;20060;-55
2022/01/03 05:40:24;;;;;;;51.88;9.23;;;11.80;88.30;;;;;;5100465;28;20020;-57
2022/01/03 05:42:50;;;;;;;56.15;8.80;;;11.80;88.30;;;;;;5100571;28;20024;-53
2022/01/03 05:45:16;;;;;;;55.25;8.25;;;11.80;88.50;;;;;;5100532;28;20062;-57
2022/01/03 05:47:46;;;;;;;60.40;9.95;;;11.80;88.50;;;;;;5100246;28;20467;-56
2022/01/03 05:50:14;;;;;;;53.53;9.05;;;11.80;88.40;;;;;;5100337;28;20035;-57
2022/01/03 05:52:40;;;;;;;51.47;8.07;;;11.80;88.40;;;;;;5100377;28;20076;-56
2022/01/03 05:55:06;;;;;;;61.05;11.00;;;11.80;88.20;;;;;;5100014;28;20063;-56
2022/01/03 05:57:32;;;;;;;55.70;9.52;;;11.80;88.20;;;;;;5100569;28;20497;-57
2022/01/03 05:59:59;;;;;;;54.15;8.10;;;11.80;88.10;;;;;;5100457;28;20028;-57
2022/01/03 06:02:28;;;;;;;58.33;8.85;;;11.80;88.20;;;;;;5100002;28;20468;-57
2022/01/03 06:05:00;;;;;;;51.53;8.82;;;11.80;88.20;;;;;;5100366;28;20092;-57
2022/01/03 06:07:26;;;;;;;64.97;8.90;;;11.80;88.20;;;;;;5099685;28;20507;-55
2022/01/03 06:09:52;;;;;;;49.80;7.70;;;11.80;88.10;;;;;;5099909;28;20105;-57
2022/01/03 06:12:19;;;;;;;49.30;8.80;;;11.90;88.20;;;;;;5099986;28;20028;-57
2022/01/03 06:14:46;;;;;;;63.20;10.63;;;11.80;88.20;;;;;;5099832;28;20028;-56
2022/01/03 06:17:14;;;;;;;45.85;8.85;;;11.80;88.20;;;;;;5099846;28;20020;-57
2022/01/03 06:19:40;;;;;;;54.30;8.30;;;11.90;88.20;;;;;;5099683;28;20047;-57
2022/01/03 06:22:09;;;;;;;50.15;9.10;;;11.80;88.30;;;;;;5099703;28;20099;-57
2022/01/03 06:24:37;;;;;;;53.42;8.25;;;11.90;88.30;;;;;;5099788;28;20020;-57
2022/01/03 06:27:04;;;;;;;64.28;9.70;;;11.90;88.10;;;;;;5099550;28;20024;-57
2022/01/03 06:29:30;;;;;;;46.60;8.00;;;11.90;88.20;;;;;;5099727;28;20024;-54
2022/01/03 06:31:57;;;;;;;52.80;7.93;;;11.90;88.20;;;;;;5099362;28;20024;-57
2022/01/03 06:34:23;;;;;;;46.60;7.50;;;11.90;88.00;;;;;;5099443;28;20084;-57
2022/01/03 06:36:49;;;;;;;58.80;9.07;;;11.90;88.00;;;;;;5099220;28;20111;-57
2022/01/03 06:39:15;;;;;;;52.03;10.07;;;11.90;88.10;;;;;;5099367;28;20044;-57
2022/01/03 06:41:42;;;;;;;51.38;7.70;;;11.90;88.00;;;;;;5100094;28;20020;-54
2022/01/03 06:44:08;;;;;;;51.53;8.18;;;11.90;88.20;;;;;;5099233;28;20101;-56
2022/01/03 06:46:34;;;;;;;53.42;10.02;;;11.90;88.30;;;;;;5099044;28;20040;-57
2022/01/03 06:49:00;;;;;;;47.08;7.13;;;11.90;88.10;;;;;;5097955;28;20024;-53
2022/01/03 06:51:31;;;;;;;62.35;9.20;;;11.90;88.30;;;;;;5098988;28;20510;-57
2022/01/03 06:53:57;;;;;;;60.15;8.27;;;11.90;88.40;;;;;;5098798;28;20495;-57
2022/01/03 06:56:23;;;;;;;50.03;7.93;;;11.90;88.50;;;;;;5098904;28;20103;-58
2022/01/03 06:58:49;;;;;;;51.75;11.02;;;11.90;88.40;;;;;;5099108;28;20054;-57
2022/01/03 07:01:15;;;;;;;55.10;8.77;;;11.90;88.50;;;;;;5098816;28;20519;-57
2022/01/03 07:03:40;;;;;;;43.30;7.22;;;11.90;88.50;;;;;;5098926;28;20016;-56
2022/01/03 07:06:06;;;;;;;56.50;8.75;;;11.90;88.40;;;;;;5098399;28;20036;-57
2022/01/03 07:08:32;;;;;;;49.22;8.65;;;11.90;88.40;;;;;;5098615;28;20107;-56
2022/01/03 07:10:58;;;;;;;51.28;8.93;;;11.90;88.40;;;;;;5098757;28;20051;-56
2022/01/03 07:13:26;;;;;;;46.78;7.55;;;11.90;88.30;;;;;;5099078;28;20035;-57
2022/01/03 07:21:20;;;;;;;46.97;8.82;;;11.90;88.30;;;;;;5098385;28;20059;-58
2022/01/03 07:23:46;;;;;;;40.47;7.40;;;11.90;88.40;;;;;;5098483;28;20395;-57
2022/01/03 07:26:12;;;;;;;62.10;9.02;;;11.90;88.40;;;;;;5098493;28;20466;-57
2022/01/03 07:28:38;;;;;;;50.00;8.73;;;11.90;88.50;;;;;;5098747;28;20023;-57
2022/01/03 07:31:03;;;;;;;44.08;7.45;;;11.90;88.50;;;;;;5097744;28;20028;-57
2022/01/03 07:33:29;;;;;;;44.83;7.32;;;11.90;88.50;;;;;;5098121;28;20458;-56
2022/01/03 07:35:55;;;;;;;49.33;9.85;;;11.90;88.40;;;;;;5098015;28;20106;-56
2022/01/03 07:38:21;;;;;;;46.50;8.30;;;12.00;88.10;;;;;;5098218;28;20020;-58
2022/01/03 07:40:46;;;;;;;50.15;8.10;;;11.90;88.20;;;;;;5097989;28;20396;-57
2022/01/03 07:43:12;;;;;;;45.85;7.45;;;11.90;88.40;;;;;;5098442;28;20020;-58
2022/01/03 07:45:38;;;;;;;55.05;8.88;;;11.90;88.50;;;;;;5098296;28;20036;-58
2022/01/03 07:48:04;;;;;;;51.70;8.20;;;11.90;88.50;;;;;;5098285;28;20024;-58
2022/01/03 07:50:30;;;;;;;36.38;7.63;;;11.90;88.50;;;;;;5098470;28;20581;-57
2022/01/03 07:53:00;;;;;;;48.50;7.38;;;11.90;88.50;;;;;;5098010;28;20044;-56
2022/01/03 07:55:26;;;;;;;51.05;8.63;;;11.90;88.50;;;;;;5098046;28;20039;-56
2022/01/03 07:57:53;;;;;;;55.03;8.10;;;11.90;88.50;;;;;;5097856;28;20020;-58
2022/01/03 08:00:19;;;;;;;46.50;7.28;;;11.90;88.40;;;;;;5098126;28;20020;-56
2022/01/03 08:02:46;;;;;;;44.47;7.40;;;11.90;88.60;;;;;;5097930;28;20376;-57
2022/01/03 08:05:14;;;;;;;41.35;8.20;;;11.90;88.50;;;;;;5097670;28;20549;-58
2022/01/03 08:07:41;;;;;;;51.22;8.00;;;11.90;88.60;;;;;;5098036;28;20024;-58
2022/01/03 08:10:08;;;;;;;55.38;8.95;;;11.90;88.50;;;;;;5097966;28;20028;-57
2022/01/03 08:12:35;;;;;;;43.40;7.50;;;11.90;88.70;;;;;;5097826;28;20031;-58
2022/01/03 08:15:01;;;;;;;50.75;7.43;;;11.90;88.70;;;;;;5097970;28;20394;-57
2022/01/03 08:17:26;;;;;;;49.78;9.60;;;11.90;88.70;;;;;;5097659;28;20024;-58
2022/01/03 08:19:52;;;;;;;44.63;8.40;;;11.90;88.80;;;;;;5097334;28;20123;-57
2022/01/03 08:22:18;;;;;;;49.83;8.00;;;11.90;88.60;;;;;;5098106;28;20067;-58
2022/01/03 08:24:45;;;;;;;43.85;6.72;;;11.90;88.60;;;;;;5097893;28;20066;-57
2022/01/03 08:27:11;;;;;;;45.55;7.35;;;11.90;88.70;;;;;;5097877;28;20055;-57
2022/01/03 08:29:37;;;;;;;47.53;8.35;;;11.90;88.90;;;;;;5101842;28;20028;-58
2022/01/03 08:32:03;;;;;;;65.80;7.93;;;11.90;88.80;;;;;;5101721;28;20049;-58
2022/01/03 08:34:29;;;;;;;48.13;8.63;;;11.90;88.80;;;;;;5101781;28;20036;-56
2022/01/03 08:36:55;;;;;;;42.63;8.38;;;11.90;89.00;;;;;;5101751;28;20463;-57
2022/01/03 08:39:21;;;;;;;47.55;9.13;;;11.90;89.10;;;;;;5101692;28;20088;-58
2022/01/03 08:41:47;;;;;;;56.78;7.53;;;11.90;89.20;;;;;;5101637;28;20032;-56
2022/01/03 08:44:12;;;;;;;50.70;8.10;;;11.90;89.50;;;;;;5100135;28;20032;-59
2022/01/03 08:46:38;;;;;;;49.85;7.65;;;11.90;89.50;;;;;;5101469;28;20020;-58
2022/01/03 08:49:04;;;;;;;64.43;8.52;;;11.90;89.50;;;;;;5101940;28;20032;-58
2022/01/03 08:51:30;;;;;;;57.08;8.93;;;11.90;89.50;;;;;;5101603;28;20032;-59
2022/01/03 08:53:56;;;;;;;57.28;9.30;;;11.90;89.60;;;;;;5101355;28;20027;-58
2022/01/03 08:56:22;;;;;;;47.78;8.07;;;11.90;89.70;;;;;;5101223;28;20073;-58
2022/01/03 08:58:48;;;;;;;35.22;7.65;;;11.90;89.60;;;;;;5101211;28;20028;-59
2022/01/03 09:01:14;;;;;;;50.75;9.95;;;11.90;89.50;;;;;;5101443;28;20573;-58
2022/01/03 09:03:40;;;;;;;43.17;8.63;;;11.90;89.40;;;;;;5101483;28;20479;-58
2022/01/03 09:06:06;;;;;;;50.65;8.20;;;11.90;89.60;;;;;;5101113;28;20043;-58
2022/01/03 09:08:32;;;;;;;43.15;7.03;;;11.90;89.80;;;;;;5101106;28;20024;-59
2022/01/03 09:10:58;;;;;;;44.55;9.70;;;11.90;89.60;;;;;;5101396;28;20024;-58
2022/01/03 09:13:24;;;;;;;47.67;7.78;;;11.90;89.80;;;;;;5100796;28;20020;-59
2022/01/03 09:15:51;;;;;;;49.13;8.80;;;11.90;89.80;;;;;;5100872;28;20486;-59
2022/01/03 09:18:19;;;;;;;42.92;7.63;;;11.90;89.70;;;;;;5101338;28;20510;-59
2022/01/03 09:20:45;;;;;;;48.00;8.18;;;12.00;89.60;;;;;;5100682;28;20036;-59
2022/01/03 09:23:17;;;;;;;45.78;8.25;;;12.00;89.60;;;;;;5100777;28;20025;-59
2022/01/03 09:30:55;;;;;;;59.28;9.15;;;12.00;89.70;;;;;;5100870;28;20504;-59
2022/01/03 09:33:21;;;;;;;53.13;8.38;;;12.10;89.70;;;;;;5100559;28;20032;-58
2022/01/03 09:35:47;;;;;;;50.25;7.38;;;12.10;89.60;;;;;;5100253;28;20368;-59
2022/01/03 09:38:13;;;;;;;56.90;8.05;;;12.10;89.70;;;;;;5100030;28;20028;-59
2022/01/03 09:40:42;;;;;;;50.17;8.63;;;12.10;89.60;;;;;;5100675;28;20024;-58
2022/01/03 09:43:13;;;;;;;48.28;8.07;;;12.10;89.40;;;;;;5100523;28;20035;-59
2022/01/03 09:45:40;;;;;;;54.83;9.40;;;12.10;89.40;;;;;;5100390;28;20093;-58
2022/01/03 09:48:07;;;;;;;42.05;8.70;;;12.00;89.40;;;;;;5100514;28;20024;-59
2022/01/03 09:50:34;;;;;;;60.83;9.88;;;12.10;89.50;;;;;;5100489;28;20025;-59
2022/01/03 09:53:02;;;;;;;53.65;10.10;;;12.10;89.40;;;;;;5100200;28;20377;-59
2022/01/03 09:55:30;;;;;;;62.17;9.35;;;12.10;89.50;;;;;;5100172;28;20020;-59
2022/01/03 09:57:56;;;;;;;64.18;11.45;;;12.00;89.60;;;;;;5100162;28;20128;-59
2022/01/03 10:00:23;;;;;;;45.83;8.23;;;12.00;89.90;;;;;;5100154;28;20020;-59
2022/01/03 10:02:50;;;;;;;54.63;9.30;;;12.00;89.80;;;;;;5099828;28;20024;-59
2022/01/03 10:05:17;;;;;;;43.28;8.55;;;12.00;89.90;;;;;;5099350;28;20115;-59
2022/01/03 10:07:43;;;;;;;56.67;9.52;;;12.10;89.80;;;;;;5099750;28;20032;-59
2022/01/03 10:10:10;;;;;;;51.20;8.02;;;12.10;89.60;;;;;;5099670;28;20103;-59
2022/01/03 10:12:36;;;;;;;48.90;8.40;;;12.00;89.80;;;;;;5099719;28;20493;-59
2022/01/03 10:15:04;;;;;;;52.25;8.85;;;12.00;90.00;;;;;;5098237;28;20028;-59
2022/01/03 10:17:37;;;;;;;44.55;7.78;;;12.00;90.00;;;;;;5099797;28;20035;-59
2022/01/03 10:20:05;;;;;;;45.85;8.60;;;12.00;90.00;;;;;;5099691;28;20071;-60
2022/01/03 10:22:33;;;;;;;31.90;6.40;;;12.00;90.00;;;;;;5099703;28;20024;-60
2022/01/03 10:25:09;;;;;;;48.15;7.93;;;12.00;90.00;;;;;;5099643;28;20024;-60
2022/01/03 10:28:03;;;;;;;48.03;8.13;;;12.00;90.00;;;;;;5099511;28;20024;-60
2022/01/03 10:30:40;;;;;;;48.75;6.82;;;12.00;90.20;;;;;;5099744;28;20027;-60
2022/01/03 10:33:16;;;;;;;53.50;7.60;;;12.00;90.10;;;;;;5099591;28;20043;-59
2022/01/03 10:35:48;;;;;;;50.10;7.85;;;12.00;90.20;;;;;;5099651;28;20108;-60
2022/01/03 10:38:37;;;;;;;43.60;7.65;;;12.00;90.20;;;;;;5099531;28;20176;-60
2022/01/03 10:41:10;;;;;;;38.38;6.90;;;12.00;90.10;;;;;;5099349;28;20371;-58
2022/01/03 10:43:35;;;;;;;44.35;6.63;;;12.00;90.20;;;;;;5099231;28;20099;-60
2022/01/03 10:46:20;;;;;;;44.60;7.40;;;11.90;90.30;;;;;;5099328;28;20052;-59
2022/01/03 10:48:47;;;;;;;35.42;6.43;;;11.90;90.30;;;;;;5099204;28;20048;-59
2022/01/03 10:51:22;;;;;;;68.20;8.27;;;11.90;90.30;;;;;;5098448;28;20062;-59
2022/01/03 10:53:47;;;;;;;;;;;11.90;90.30;;;;;;5099523;28;20108;-59
2022/01/03 10:56:31;;;;;;;44.15;5.63;;;11.90;90.10;;;;;;5099193;28;20386;-59
2022/01/03 10:59:34;;;;;;;57.38;6.68;;;11.90;90.20;;;;;;5098796;28;20160;-58
2022/01/03 11:02:01;;;;;;;25.27;4.40;;;11.90;90.20;;;;;;5099147;28;20027;-59
2022/01/03 11:04:34;;;;;;;32.08;5.53;;;11.90;90.20;;;;;;5098822;28;20030;-59
2022/01/03 11:13:03;;;;;;;37.80;6.10;;;11.90;90.40;;;;;;5099016;28;20518;-59
2022/01/03 11:15:29;;;;;;;20.20;4.53;;;12.00;90.40;;;;;;5098910;28;20035;-59
2022/01/03 11:18:08;;;;;;;22.88;4.30;;;12.00;90.40;;;;;;5098806;28;20475;-59
2022/01/03 11:20:34;;;;;;;19.42;3.45;;;12.00;90.40;;;;;;5098514;28;20126;-59
2022/01/03 11:23:00;;;;;;;26.13;3.85;;;12.00;90.50;;;;;;5098701;28;20058;-59
2022/01/03 11:25:31;;;;;;;28.20;5.93;;;12.00;90.50;;;;;;5098633;28;20042;-59
2022/01/03 11:27:56;;;;;;;27.38;4.20;;;12.00;90.50;;;;;;5098624;28;20028;-58
2022/01/03 11:30:23;;;;;;;33.03;4.93;;;12.00;90.50;;;;;;5098761;28;20020;-57
2022/01/03 11:32:50;;;;;;;31.92;5.10;;;12.00;90.40;;;;;;5098555;28;20032;-59
2022/01/03 11:35:16;;;;;;;27.30;4.55;;;12.00;90.40;;;;;;5098281;28;20031;-59
2022/01/03 11:37:47;;;;;;;30.27;4.50;;;12.00;90.40;;;;;;5098669;28;20027;-57
2022/01/03 11:40:16;;;;;;;37.67;5.88;;;11.90;90.40;;;;;;5098703;28;20031;-58
2022/01/03 11:42:47;;;;;;;31.58;5.53;;;11.90;90.30;;;;;;5098170;28;20024;-59
2022/01/03 11:45:13;;;;;;;24.92;5.32;;;11.90;90.40;;;;;;5098346;28;20031;-58
2022/01/03 11:47:39;;;;;;;26.45;4.20;;;11.90;90.40;;;;;;5098475;28;20471;-59
2022/01/03 11:50:07;;;;;;;23.08;3.95;;;11.90;90.40;;;;;;5098345;28;20190;-58
2022/01/03 11:52:39;;;;;;;23.02;3.40;;;11.80;90.30;;;;;;5098229;28;20026;-58
2022/01/03 11:55:06;;;;;;;21.55;3.33;;;11.80;90.40;;;;;;5098235;28;20035;-59
2022/01/03 11:58:52;;;;;;;16.63;3.10;;;11.80;90.50;;;;;;5097944;28;20031;-59
2022/01/03 12:03:50;;;;;;;40.50;4.45;;;11.80;90.50;;;;;;5097844;28;20030;-58
2022/01/03 12:06:28;;;;;;;26.15;3.92;;;11.80;90.50;;;;;;5098658;28;20040;-58
2022/01/03 12:08:56;;;;;;;15.02;2.55;;;11.80;90.50;;;;;;5098288;28;20103;-58
2022/01/03 12:11:30;;;;;;;24.70;3.45;;;11.90;90.60;;;;;;5097772;28;20127;-58
2022/01/03 12:14:06;;;;;;;18.48;3.13;;;11.80;90.60;;;;;;5097872;28;20035;-58
2022/01/03 12:16:52;;;;;;;29.95;3.55;;;11.80;90.60;;;;;;5097487;28;20058;-58
2022/01/03 12:19:39;;;;;;;52.40;4.65;;;11.90;90.60;;;;;;5097720;28;20076;-58
2022/01/03 12:22:24;;;;;;;55.95;5.78;;;11.90;90.60;;;;;;5098059;28;20040;-58
2022/01/03 12:25:00;;;;;;;20.80;3.78;;;11.90;90.60;;;;;;5097891;28;20078;-58
2022/01/03 12:27:39;;;;;;;53.88;5.43;;;11.90;90.60;;;;;;5097629;28;20031;-57
2022/01/03 12:30:13;;;;;;;32.03;3.58;;;11.90;90.70;;;;;;5097619;28;20483;-58
2022/01/03 12:32:41;;;;;;;29.67;3.67;;;11.90;90.70;;;;;;5097935;28;20038;-58
2022/01/03 12:35:07;;;;;;;26.13;4.53;;;11.90;90.80;;;;;;5097548;28;20024;-57
2022/01/03 12:37:52;;;;;;;18.40;3.88;;;11.90;90.80;;;;;;5097992;28;20028;-56
2022/01/03 12:40:25;;;;;;;32.40;4.63;;;12.00;90.90;;;;;;5097580;28;20024;-54
2022/01/03 12:42:53;;;;;;;30.35;7.45;;;12.00;90.90;;;;;;5097607;28;20042;-52
2022/01/03 12:45:34;;;;;;;47.03;6.93;;;12.10;90.80;;;;;;5097698;28;20028;-55
2022/01/03 12:48:12;;;;;;;52.08;9.38;;;12.10;90.80;;;;;;5097271;28;20025;-54
2022/01/03 12:50:51;;;;;;;47.63;8.40;;;12.10;90.80;;;;;;5097654;28;20087;-52
2022/01/03 12:53:23;;;;;;;42.40;9.15;;;12.10;90.80;;;;;;5097552;28;20050;-56
2022/01/03 12:55:52;;;;;;;52.83;8.93;;;12.10;90.80;;;;;;5097278;28;20503;-50
2022/01/03 12:58:20;;;;;;;46.30;8.68;;;12.10;90.80;;;;;;5097390;28;20084;-54
2022/01/03 13:00:55;;;;;;;53.03;9.35;;;12.10;90.80;;;;;;5097313;28;20048;-56
2022/01/03 13:03:21;;;;;;;;;;;12.10;90.80;;;;;;5097970;28;20055;-51
2022/01/03 13:06:09;;;;;;;39.25;8.55;;;12.10;90.70;;;;;;5097407;28;19908;-53